createdAt,value
2022-09-18T00:01:15.943Z,94703.44
2022-09-18T00:03:43.342Z,94708.03
2022-09-18T00:06:13.007Z,94712.97
2022-09-18T00:08:40.350Z,94697.19
2022-09-18T00:11:08.771Z,94697.66
2022-09-18T00:13:37.306Z,94703.91
2022-09-18T00:16:05.476Z,94723.72
2022-09-18T00:18:32.158Z,94714.75
2022-09-18T00:21:06.552Z,94710.59
2022-09-18T00:23:33.391Z,94709.50
2022-09-18T00:26:00.092Z,94699.31
2022-09-18T00:28:26.853Z,94717.44
2022-09-18T00:30:53.979Z,94708.66
2022-09-18T00:33:20.767Z,94712.84
2022-09-18T00:35:47.292Z,94709.53
2022-09-18T00:38:13.766Z,94710.16
2022-09-18T00:40:40.400Z,94698.13
2022-09-18T00:43:27.725Z,94696.97
2022-09-18T00:46:08.609Z,94698.53
2022-09-18T00:48:45.095Z,94692.47
2022-09-18T00:51:12.647Z,94680.09
2022-09-18T00:53:42.227Z,94693.09
2022-09-18T00:56:11.121Z,94687.41
2022-09-18T00:58:37.679Z,94692.47
2022-09-18T01:01:04.679Z,94696.34
2022-09-18T01:03:31.244Z,94694.16
2022-09-18T01:06:13.813Z,94687.97
2022-09-18T01:09:09.437Z,94697.50
2022-09-18T01:11:58.571Z,94676.22
2022-09-18T01:14:25.127Z,94695.22
2022-09-18T01:17:08.816Z,94679.00
2022-09-18T01:19:44.131Z,94691.47
2022-09-18T01:23:03.624Z,94695.31
2022-09-18T01:25:30.316Z,94693.47
2022-09-18T01:28:22.912Z,94695.66
2022-09-18T01:30:53.099Z,94692.44
2022-09-18T01:33:30.158Z,94690.44
2022-09-18T01:36:01.930Z,94679.63
2022-09-18T01:38:55.103Z,94698.00
2022-09-18T01:41:24.874Z,94692.34
2022-09-18T01:43:57.773Z,94679.53
2022-09-18T01:46:25.577Z,94684.22
2022-09-18T01:48:58.460Z,94689.16
2022-09-18T01:51:51.087Z,94697.50
2022-09-18T01:54:21.723Z,94684.06
2022-09-18T01:56:52.555Z,94689.56
2022-09-18T01:59:23.938Z,94681.19
2022-09-18T02:01:53.293Z,94683.41
2022-09-18T02:04:25.538Z,94691.63
2022-09-18T02:07:00.019Z,94686.03
2022-09-18T02:09:27.385Z,94685.31
2022-09-18T02:11:56.500Z,94688.41
2022-09-18T02:14:31.473Z,94685.03
2022-09-18T02:17:05.945Z,94677.25
2022-09-18T02:19:51.139Z,94678.63
2022-09-18T02:22:21.462Z,94674.91
2022-09-18T02:24:51.016Z,94679.09
2022-09-18T02:27:17.968Z,94662.22
2022-09-18T02:29:46.495Z,94677.75
2022-09-18T02:32:14.241Z,94680.56
2022-09-18T02:34:40.842Z,94683.38
2022-09-18T02:37:13.359Z,94680.59
2022-09-18T02:39:55.094Z,94682.59
2022-09-18T02:42:27.790Z,94673.72
2022-09-18T02:44:54.231Z,94672.06
2022-09-18T02:47:44.794Z,94673.59
2022-09-18T02:50:35.987Z,94666.34
2022-09-18T02:53:40.231Z,94664.22
2022-09-18T02:56:23.164Z,94660.53
2022-09-18T02:59:02.592Z,94660.75
2022-09-18T03:01:29.954Z,94667.38
2022-09-18T03:04:03.490Z,94668.81
2022-09-18T03:06:29.970Z,94664.25
2022-09-18T03:08:56.514Z,94654.81
2022-09-18T03:11:23.276Z,94661.25
2022-09-18T03:13:49.752Z,94666.50
2022-09-18T03:16:16.274Z,94662.16
2022-09-18T03:18:42.771Z,94667.22
2022-09-18T03:21:09.303Z,94663.06
2022-09-18T03:23:35.844Z,94664.69
2022-09-18T03:26:02.425Z,94668.44
2022-09-18T03:28:31.744Z,94665.78
2022-09-18T03:30:58.371Z,94667.25
2022-09-18T03:33:24.880Z,94668.88
2022-09-18T03:35:51.448Z,94648.69
2022-09-18T03:38:18.023Z,94655.53
2022-09-18T03:40:47.806Z,94665.19
2022-09-18T03:43:14.617Z,94664.88
2022-09-18T03:45:41.120Z,94666.34
2022-09-18T03:48:07.607Z,94664.44
2022-09-18T03:50:34.142Z,94664.41
2022-09-18T03:53:01.118Z,94664.00
2022-09-18T03:55:27.610Z,94685.31
2022-09-18T03:57:54.146Z,94680.00
2022-09-18T04:00:20.829Z,94672.97
2022-09-18T04:02:47.359Z,94661.84
2022-09-18T04:05:15.446Z,94673.84
2022-09-18T04:07:42.040Z,94674.59
2022-09-18T04:10:09.152Z,94672.13
2022-09-18T04:12:35.723Z,94668.44
2022-09-18T04:15:02.294Z,94675.50
2022-09-18T04:17:28.841Z,94667.00
2022-09-18T04:19:55.327Z,94670.16
2022-09-18T04:22:22.894Z,94683.13
2022-09-18T04:24:50.619Z,94677.47
2022-09-18T04:27:17.583Z,94693.75
2022-09-18T04:29:44.077Z,94684.84
2022-09-18T04:32:10.781Z,94681.56
2022-09-18T04:34:37.313Z,94677.88
2022-09-18T04:37:06.886Z,94663.88
2022-09-18T04:39:36.611Z,94679.16
2022-09-18T04:42:03.485Z,94689.19
2022-09-18T04:44:29.999Z,94664.34
2022-09-18T04:46:56.610Z,94690.94
2022-09-18T04:49:23.399Z,94675.75
2022-09-18T04:51:49.954Z,94684.81
2022-09-18T04:54:16.517Z,94683.97
2022-09-18T04:56:43.056Z,94671.06
2022-09-18T04:59:09.864Z,94678.63
2022-09-18T05:01:36.523Z,94681.97
2022-09-18T05:04:03.059Z,94680.75
2022-09-18T05:06:29.583Z,94690.66
2022-09-18T05:08:57.471Z,94679.88
2022-09-18T05:11:24.354Z,94690.34
2022-09-18T05:13:52.791Z,94702.31
2022-09-18T05:16:19.550Z,94681.09
2022-09-18T05:18:46.103Z,94684.19
2022-09-18T05:21:12.631Z,94687.22
2022-09-18T05:23:40.022Z,94704.81
2022-09-18T05:26:06.947Z,94701.69
2022-09-18T05:28:33.686Z,94707.69
2022-09-18T05:31:01.090Z,94695.31
2022-09-18T05:33:27.852Z,94704.19
2022-09-18T05:35:57.323Z,94708.13
2022-09-18T05:38:25.113Z,94710.84
2022-09-18T05:40:51.764Z,94715.94
2022-09-18T05:43:18.273Z,94707.41
2022-09-18T05:45:44.980Z,94712.75
2022-09-18T05:48:14.563Z,94722.78
2022-09-18T05:50:42.655Z,94713.22
2022-09-18T05:53:13.387Z,94721.97
2022-09-18T05:55:40.645Z,94719.75
2022-09-18T05:58:12.068Z,94718.81
2022-09-18T06:00:38.796Z,94713.94
2022-09-18T06:03:07.753Z,94720.34
2022-09-18T06:05:35.940Z,94720.22
2022-09-18T06:08:03.553Z,94728.09
2022-09-18T06:10:30.537Z,94714.03
2022-09-18T06:13:05.029Z,94727.06
2022-09-18T06:15:32.511Z,94717.34
2022-09-18T06:17:59.296Z,94729.38
2022-09-18T06:20:25.868Z,94720.31
2022-09-18T06:22:52.676Z,94730.97
2022-09-18T06:25:21.751Z,94716.16
2022-09-18T06:27:53.710Z,94730.00
2022-09-18T06:30:20.541Z,94730.09
2022-09-18T06:32:47.075Z,94744.72
2022-09-18T06:35:13.765Z,94746.38
2022-09-18T06:37:40.275Z,94731.03
2022-09-18T06:40:07.280Z,94740.31
2022-09-18T06:42:33.880Z,94747.56
2022-09-18T06:45:00.393Z,94747.56
2022-09-18T06:47:26.922Z,94744.22
2022-09-18T06:49:53.383Z,94735.50
2022-09-18T06:52:19.869Z,94739.63
2022-09-18T06:54:46.364Z,94744.16
2022-09-18T06:57:12.873Z,94736.03
2022-09-18T06:59:39.365Z,94743.91
2022-09-18T07:02:14.109Z,94753.28
2022-09-18T07:04:42.839Z,94738.13
2022-09-18T07:07:09.409Z,94741.97
2022-09-18T07:09:35.906Z,94735.38
2022-09-18T07:12:02.842Z,94746.66
2022-09-18T07:14:29.510Z,94752.16
2022-09-18T07:16:56.013Z,94756.25
2022-09-18T07:19:22.748Z,94755.09
2022-09-18T07:21:49.278Z,94760.56
2022-09-18T07:24:15.756Z,94762.50
2022-09-18T07:26:42.224Z,94764.53
2022-09-18T07:29:10.194Z,94759.84
2022-09-18T07:31:37.077Z,94750.50
2022-09-18T07:34:03.650Z,94761.69
2022-09-18T07:36:30.475Z,94761.69
2022-09-18T07:38:58.051Z,94758.69
2022-09-18T07:41:24.536Z,94755.75
2022-09-18T07:43:51.475Z,94753.13
2022-09-18T07:46:18.066Z,94750.81
2022-09-18T07:48:44.615Z,94748.38
2022-09-18T07:51:11.227Z,94762.00
2022-09-18T07:53:37.971Z,94754.94
2022-09-18T07:56:12.348Z,94770.91
2022-09-18T07:58:39.130Z,94767.38
2022-09-18T08:01:06.622Z,94777.03
2022-09-18T08:03:35.037Z,94753.22
2022-09-18T08:06:05.130Z,94770.91
2022-09-18T08:08:31.667Z,94760.31
2022-09-18T08:10:58.292Z,94768.13
2022-09-18T08:13:24.863Z,94759.50
2022-09-18T08:15:51.472Z,94735.59
2022-09-18T08:18:21.113Z,94762.72
2022-09-18T08:20:47.817Z,94766.22
2022-09-18T08:23:14.301Z,94762.81
2022-09-18T08:25:42.152Z,94756.69
2022-09-18T08:28:10.066Z,94753.69
2022-09-18T08:30:36.681Z,94750.69
2022-09-18T08:33:06.620Z,94754.78
2022-09-18T08:35:34.105Z,94750.41
2022-09-18T08:38:01.909Z,94759.75
2022-09-18T08:40:41.277Z,94764.22
2022-09-18T08:43:34.412Z,94765.16
2022-09-18T08:46:30.735Z,94757.97
2022-09-18T08:49:16.056Z,94767.34
2022-09-18T08:52:03.404Z,94761.06
2022-09-18T08:54:59.678Z,94764.75
2022-09-18T08:57:35.737Z,94778.72
2022-09-18T09:00:24.475Z,94761.28
2022-09-18T09:02:53.564Z,94767.34
2022-09-18T09:05:29.134Z,94763.50
2022-09-18T09:08:08.635Z,94767.34
2022-09-18T09:10:41.716Z,94765.44
2022-09-18T09:13:30.485Z,94767.81
2022-09-18T09:16:07.322Z,94758.03
2022-09-18T09:19:01.607Z,94760.66
2022-09-18T09:21:50.997Z,94760.00
2022-09-18T09:24:31.318Z,94766.66
2022-09-18T09:26:59.113Z,94761.59
2022-09-18T09:29:30.514Z,94762.56
2022-09-18T09:32:07.851Z,94775.75
2022-09-18T09:34:44.710Z,94769.13
2022-09-18T09:37:20.504Z,94766.94
2022-09-18T09:39:58.749Z,94768.09
2022-09-18T09:42:34.390Z,94749.44
2022-09-18T09:45:22.591Z,94773.13
2022-09-18T09:48:00.989Z,94770.09
2022-09-18T09:50:49.495Z,94781.03
2022-09-18T09:53:16.126Z,94772.91
2022-09-18T09:55:51.780Z,94772.00
2022-09-18T09:58:31.937Z,94784.16
2022-09-18T10:01:10.892Z,94778.22
2022-09-18T10:04:11.845Z,94769.38
2022-09-18T10:06:50.581Z,94777.28
2022-09-18T10:09:38.446Z,94769.34
2022-09-18T10:12:25.132Z,94761.72
2022-09-18T10:14:53.520Z,94777.00
2022-09-18T10:17:21.987Z,94773.94
2022-09-18T10:19:49.189Z,94780.63
2022-09-18T10:22:19.728Z,94781.56
2022-09-18T10:25:01.833Z,94765.53
2022-09-18T10:27:28.467Z,94779.94
2022-09-18T10:29:55.061Z,94784.00
2022-09-18T10:32:36.512Z,94793.06
2022-09-18T10:35:28.657Z,94790.44
2022-09-18T10:37:55.879Z,94776.84
2022-09-18T10:40:37.264Z,94782.09
2022-09-18T10:43:04.958Z,94778.75
2022-09-18T10:45:38.003Z,94784.00
2022-09-18T10:48:27.887Z,94777.31
2022-09-18T10:51:02.402Z,94781.13
2022-09-18T10:53:33.792Z,94772.78
2022-09-18T10:56:17.133Z,94781.16
2022-09-18T10:58:45.020Z,94767.78
2022-09-18T11:01:13.170Z,94773.25
2022-09-18T11:03:42.837Z,94765.84
2022-09-18T11:06:19.063Z,94767.53
2022-09-18T11:08:52.006Z,94777.78
2022-09-18T11:11:26.522Z,94776.34
2022-09-18T11:14:17.624Z,94767.28
2022-09-18T11:16:48.674Z,94773.03
2022-09-18T11:19:26.614Z,94765.88
2022-09-18T11:21:59.424Z,94759.41
2022-09-18T11:24:28.461Z,94764.41
2022-09-18T11:26:57.525Z,94740.06
2022-09-18T11:29:40.017Z,94777.78
2022-09-18T11:32:38.083Z,94768.25
2022-09-18T11:35:13.147Z,94758.47
2022-09-18T11:37:53.103Z,94744.13
2022-09-18T11:40:43.162Z,94763.22
2022-09-18T11:43:37.587Z,94762.28
2022-09-18T11:46:07.286Z,94751.53
2022-09-18T11:48:44.420Z,94746.47
2022-09-18T11:51:18.912Z,94742.44
2022-09-18T11:53:52.031Z,94739.59
2022-09-18T11:56:46.201Z,94741.03
2022-09-18T11:59:24.305Z,94717.16
2022-09-18T12:01:56.723Z,94724.81
2022-09-18T12:04:46.400Z,94725.50
2022-09-18T12:07:38.289Z,94734.78
2022-09-18T12:10:38.068Z,94739.59
2022-09-18T12:13:28.859Z,94734.56
2022-09-18T12:16:06.780Z,94713.09
2022-09-18T12:18:56.867Z,94723.53
2022-09-18T12:21:36.361Z,94732.84
2022-09-18T12:24:03.228Z,94705.91
2022-09-18T12:26:39.595Z,94725.69
2022-09-18T12:29:25.995Z,94719.94
2022-09-18T12:31:58.628Z,94722.78
2022-09-18T12:34:31.888Z,94711.78
2022-09-18T12:37:18.399Z,94715.09
2022-09-18T12:40:10.478Z,94725.81
2022-09-18T12:43:00.169Z,94724.38
2022-09-18T12:45:36.355Z,94717.16
2022-09-18T12:48:20.831Z,94724.91
2022-09-18T12:50:50.380Z,94707.66
2022-09-18T12:53:41.833Z,94705.69
2022-09-18T12:56:54.083Z,94698.06
2022-09-18T13:00:12.286Z,94685.19
2022-09-18T13:02:53.242Z,94687.50
2022-09-18T13:05:33.954Z,94691.50
2022-09-18T13:08:25.481Z,94684.16
2022-09-18T13:10:59.162Z,94680.75
2022-09-18T13:13:40.255Z,94675.28
2022-09-18T13:16:16.715Z,94682.38
2022-09-18T13:19:05.017Z,94678.75
2022-09-18T13:21:37.585Z,94676.56
2022-09-18T13:24:06.068Z,94672.75
2022-09-18T13:26:37.777Z,94680.09
2022-09-18T13:29:05.738Z,94687.03
2022-09-18T13:31:35.142Z,94666.94
2022-09-18T13:34:17.345Z,94645.25
2022-09-18T13:36:46.256Z,94646.44
2022-09-18T13:39:18.689Z,94664.03
2022-09-18T13:41:53.376Z,94641.38
2022-09-18T13:44:23.490Z,94646.03
2022-09-18T13:46:52.262Z,94645.88
2022-09-18T13:49:32.124Z,94647.34
2022-09-18T13:52:41.716Z,94648.66
2022-09-18T13:55:11.403Z,94659.81
2022-09-18T13:57:38.407Z,94646.34
2022-09-18T14:00:20.382Z,94651.31
2022-09-18T14:02:51.475Z,94649.00
2022-09-18T14:05:31.035Z,94644.38
2022-09-18T14:08:07.087Z,94636.00
2022-09-18T14:11:04.957Z,94641.81
2022-09-18T14:13:37.583Z,94641.84
2022-09-18T14:16:11.789Z,94630.34
2022-09-18T14:18:44.335Z,94623.34
2022-09-18T14:21:42.554Z,94627.53
2022-09-18T14:24:25.290Z,94610.88
2022-09-18T14:27:01.484Z,94613.13
2022-09-18T14:29:31.559Z,94609.81
2022-09-18T14:32:00.187Z,94619.31
2022-09-18T14:34:38.950Z,94619.78
2022-09-18T14:37:28.865Z,94609.22
2022-09-18T14:39:57.179Z,94613.16
2022-09-18T14:42:36.046Z,94607.53
2022-09-18T14:45:12.360Z,94605.53
2022-09-18T14:47:40.544Z,94595.81
2022-09-18T14:50:32.689Z,94593.97
2022-09-18T14:53:02.387Z,94584.56
2022-09-18T14:55:39.057Z,94595.22
2022-09-18T14:58:08.508Z,94594.50
2022-09-18T15:00:37.450Z,94590.38
2022-09-18T15:03:08.973Z,94606.03
2022-09-18T15:05:36.410Z,94596.34
2022-09-18T15:08:13.232Z,94593.19
2022-09-18T15:10:40.626Z,94584.25
2022-09-18T15:13:09.808Z,94595.28
2022-09-18T15:15:39.491Z,94591.31
2022-09-18T15:18:29.645Z,94590.75
2022-09-18T15:21:01.777Z,94581.69
2022-09-18T15:23:33.176Z,94584.47
2022-09-18T15:26:03.094Z,94574.47
2022-09-18T15:28:33.554Z,94572.91
2022-09-18T15:31:07.429Z,94587.91
2022-09-18T15:33:36.499Z,94590.28
2022-09-18T15:36:04.701Z,94585.00
2022-09-18T15:38:40.790Z,94586.34
2022-09-18T15:41:43.166Z,94592.28
2022-09-18T15:44:34.567Z,94588.59
2022-09-18T15:47:26.120Z,94594.41
2022-09-18T15:49:52.848Z,94585.94
2022-09-18T15:53:03.084Z,94593.28
2022-09-18T15:55:53.809Z,94586.78
2022-09-18T15:58:42.818Z,94580.31
2022-09-18T16:01:19.407Z,94569.41
2022-09-18T16:03:46.600Z,94573.66
2022-09-18T16:06:27.259Z,94565.22
2022-09-18T16:08:55.892Z,94565.66
2022-09-18T16:11:42.172Z,94564.06
2022-09-18T16:14:46.951Z,94565.44
2022-09-18T16:17:28.434Z,94564.41
2022-09-18T16:20:00.818Z,94561.38
2022-09-18T16:22:28.967Z,94556.75
2022-09-18T16:24:57.108Z,94558.41
2022-09-18T16:27:25.543Z,94563.50
2022-09-18T16:29:52.061Z,94553.31
2022-09-18T16:32:20.289Z,94553.50
2022-09-18T16:34:47.423Z,94557.53
2022-09-18T16:37:17.436Z,94544.38
2022-09-18T16:39:44.943Z,94547.91
2022-09-18T16:42:17.873Z,94532.91
2022-09-18T16:44:45.718Z,94542.38
2022-09-18T16:47:14.869Z,94541.69
2022-09-18T16:49:46.770Z,94530.13
2022-09-18T16:52:14.574Z,94535.63
2022-09-18T16:54:41.153Z,94533.28
2022-09-18T16:57:14.042Z,94530.84
2022-09-18T16:59:43.418Z,94513.34
2022-09-18T17:02:11.911Z,94529.44
2022-09-18T17:04:38.547Z,94533.28
2022-09-18T17:07:06.415Z,94535.91
2022-09-18T17:09:33.024Z,94530.41
2022-09-18T17:11:59.677Z,94532.75
2022-09-18T17:14:26.378Z,94523.25
2022-09-18T17:16:53.114Z,94525.56
2022-09-18T17:19:20.053Z,94522.50
2022-09-18T17:21:47.187Z,94527.56
2022-09-18T17:24:13.745Z,94538.53
2022-09-18T17:26:41.616Z,94545.25
2022-09-18T17:29:11.356Z,94537.84
2022-09-18T17:31:37.942Z,94545.06
2022-09-18T17:34:05.805Z,94539.59
2022-09-18T17:36:32.448Z,94544.16
2022-09-18T17:39:02.305Z,94529.13
2022-09-18T17:41:29.530Z,94542.72
2022-09-18T17:43:56.076Z,94532.59
2022-09-18T17:46:22.665Z,94532.75
2022-09-18T17:48:54.185Z,94521.38
2022-09-18T17:51:20.899Z,94536.38
2022-09-18T17:53:48.958Z,94542.53
2022-09-18T17:56:18.783Z,94533.03
2022-09-18T17:58:46.159Z,94541.66
2022-09-18T18:01:13.884Z,94551.00
2022-09-18T18:03:41.165Z,94547.91
2022-09-18T18:06:08.503Z,94551.47
2022-09-18T18:08:35.058Z,94553.44
2022-09-18T18:11:07.344Z,94553.50
2022-09-18T18:13:36.802Z,94554.16
2022-09-18T18:16:09.669Z,94567.25
2022-09-18T18:18:39.637Z,94568.97
2022-09-18T18:21:07.363Z,94557.28
2022-09-18T18:23:35.015Z,94573.00
2022-09-18T18:26:03.310Z,94557.56
2022-09-18T18:28:31.821Z,94558.00
2022-09-18T18:31:06.325Z,94578.59
2022-09-18T18:33:34.190Z,94577.84
2022-09-18T18:36:31.166Z,94579.88
2022-09-18T18:38:59.773Z,94569.63
2022-09-18T18:41:29.172Z,94578.69
2022-09-18T18:43:58.232Z,94573.72
2022-09-18T18:46:26.958Z,94574.09
2022-09-18T18:49:01.895Z,94578.59
2022-09-18T18:51:34.663Z,94584.03
2022-09-18T18:54:02.887Z,94580.69
2022-09-18T18:56:32.379Z,94585.00
2022-09-18T18:59:01.205Z,94585.94
2022-09-18T19:01:29.328Z,94598.16
2022-09-18T19:03:58.254Z,94585.94
2022-09-18T19:06:26.607Z,94575.53
2022-09-18T19:08:57.965Z,94598.41
2022-09-18T19:11:24.747Z,94575.41
2022-09-18T19:13:54.122Z,94592.00
2022-09-18T19:16:20.752Z,94593.28
2022-09-18T19:18:55.044Z,94599.75
2022-09-18T19:21:22.470Z,94600.53
2022-09-18T19:23:53.625Z,94599.97
2022-09-18T19:26:21.278Z,94582.09
2022-09-18T19:28:56.110Z,94595.69
2022-09-18T19:31:23.241Z,94589.50
2022-09-18T19:33:52.350Z,94593.50
2022-09-18T19:36:20.747Z,94594.25
2022-09-18T19:38:52.142Z,94591.16
2022-09-18T19:41:41.768Z,94586.09
2022-09-18T19:44:41.717Z,94588.72
2022-09-18T19:47:30.294Z,94582.78
2022-09-18T19:49:58.526Z,94588.72
2022-09-18T19:52:28.546Z,94586.78
2022-09-18T19:54:56.718Z,94581.59
2022-09-18T19:57:23.887Z,94571.75
2022-09-18T19:59:54.540Z,94578.84
2022-09-18T20:02:22.564Z,94566.19
2022-09-18T20:04:49.156Z,94566.88
2022-09-18T20:07:15.659Z,94556.41
2022-09-18T20:09:42.315Z,94549.19
2022-09-18T20:12:09.970Z,94544.72
2022-09-18T20:14:36.615Z,94545.19
2022-09-18T20:17:03.177Z,94559.25
2022-09-18T20:19:29.901Z,94570.53
2022-09-18T20:21:56.984Z,94562.22
2022-09-18T20:24:23.477Z,94560.69
2022-09-18T20:26:51.454Z,94556.66
2022-09-18T20:29:18.117Z,94557.47
2022-09-18T20:31:45.954Z,94540.41
2022-09-18T20:34:13.965Z,94536.78
2022-09-18T20:36:40.510Z,94543.53
2022-09-18T20:39:07.229Z,94551.91
2022-09-18T20:41:33.759Z,94530.91
2022-09-18T20:44:04.956Z,94538.06
2022-09-18T20:46:36.998Z,94539.91
2022-09-18T20:49:04.195Z,94537.53
2022-09-18T20:51:34.850Z,94539.78
2022-09-18T20:54:02.849Z,94533.91
2022-09-18T20:56:36.140Z,94550.84
2022-09-18T20:59:06.637Z,94529.97
2022-09-18T21:01:35.504Z,94542.69
2022-09-18T21:04:02.759Z,94528.16
2022-09-18T21:06:32.048Z,94520.94
2022-09-18T21:08:59.719Z,94533.19
2022-09-18T21:11:31.534Z,94530.44
2022-09-18T21:14:03.446Z,94528.97
2022-09-18T21:16:32.580Z,94529.88
2022-09-18T21:19:01.931Z,94525.41
2022-09-18T21:21:31.031Z,94522.16
2022-09-18T21:24:04.234Z,94527.66
2022-09-18T21:26:35.992Z,94535.16
2022-09-18T21:29:10.330Z,94542.81
2022-09-18T21:31:42.531Z,94541.28
2022-09-18T21:34:23.483Z,94535.41
2022-09-18T21:36:52.096Z,94548.78
2022-09-18T21:39:18.578Z,94541.50
2022-09-18T21:41:48.326Z,94543.91
2022-09-18T21:44:17.915Z,94549.59
2022-09-18T21:46:47.949Z,94540.19
2022-09-18T21:49:16.100Z,94529.69
2022-09-18T21:51:42.887Z,94539.16
2022-09-18T21:54:15.202Z,94530.91
2022-09-18T21:56:42.647Z,94531.31
2022-09-18T21:59:10.252Z,94532.38
2022-09-18T22:01:38.229Z,94534.34
2022-09-18T22:04:07.324Z,94545.31
2022-09-18T22:06:35.983Z,94542.66
2022-09-18T22:09:08.943Z,94531.81
2022-09-18T22:11:37.036Z,94547.03
2022-09-18T22:14:06.681Z,94537.75
2022-09-18T22:16:33.597Z,94543.22
2022-09-18T22:19:00.329Z,94529.59
2022-09-18T22:21:32.784Z,94531.06
2022-09-18T22:24:21.823Z,94536.25
2022-09-18T22:26:51.725Z,94539.38
2022-09-18T22:29:21.582Z,94525.09
2022-09-18T22:31:49.358Z,94531.50
2022-09-18T22:34:18.336Z,94538.66
2022-09-18T22:36:46.451Z,94555.41
2022-09-18T22:39:14.704Z,94551.41
2022-09-18T22:41:41.755Z,94555.69
2022-09-18T22:44:08.629Z,94558.78
2022-09-18T22:46:37.643Z,94539.94
2022-09-18T22:49:05.619Z,94549.03
2022-09-18T22:51:32.502Z,94533.31
2022-09-18T22:54:04.789Z,94534.97
2022-09-18T22:56:31.996Z,94524.97
2022-09-18T22:59:02.139Z,94534.00
2022-09-18T23:01:31.887Z,94535.94
2022-09-18T23:03:59.472Z,94535.22
2022-09-18T23:06:26.906Z,94527.81
2022-09-18T23:08:55.427Z,94518.53
2022-09-18T23:11:25.441Z,94523.53
2022-09-18T23:13:56.257Z,94519.03
2022-09-18T23:16:25.247Z,94522.59
2022-09-18T23:18:54.373Z,94523.78
2022-09-18T23:21:22.725Z,94533.56
2022-09-18T23:23:50.029Z,94526.38
2022-09-18T23:26:19.835Z,94520.69
2022-09-18T23:28:47.584Z,94533.53
2022-09-18T23:31:18.104Z,94540.94
2022-09-18T23:33:48.947Z,94544.06
2022-09-18T23:36:18.804Z,94533.06
2022-09-18T23:38:46.293Z,94562.16
2022-09-18T23:41:15.316Z,94550.72
2022-09-18T23:43:50.528Z,94548.78
2022-09-18T23:46:18.139Z,94538.06
2022-09-18T23:48:45.558Z,94550.22
2022-09-18T23:51:12.614Z,94559.53
2022-09-18T23:53:41.531Z,94552.13
2022-09-18T23:56:12.495Z,94548.56
2022-09-18T23:58:40.136Z,94554.50
